Time;durP1;ratioP1;P1;durP2;ratioP2;P2;SDS_P1;SDS_P2;PMS_P1;PMS_P2;Temp;Humidity;BMP_temperature;BMP_pressure;BME280_temperature;BME280_humidity;BME280_pressure;Samples;Min_cycle;Max_cycle;Signal;HPM_P1;HPM_P2
2022/08/28 00:01:43;;;;;;;;;;;13.50;94.40;;;;;;6154918;23;19911;-67
2022/08/28 00:04:10;;;;;;;;;;;13.60;94.40;;;;;;6155489;23;19921;-67
2022/08/28 00:06:37;;;;;;;;;;;13.70;94.40;;;;;;6155475;23;20295;-67
2022/08/28 00:09:03;;;;;;;;;;;13.70;94.40;;;;;;6155305;23;19905;-67
2022/08/28 00:11:30;;;;;;;;;;;13.80;94.30;;;;;;6155232;23;19952;-67
2022/08/28 00:13:57;;;;;;;;;;;13.80;94.40;;;;;;6155305;23;19912;-67
2022/08/28 00:16:24;;;;;;;;;;;13.90;94.10;;;;;;6154746;23;19920;-67
2022/08/28 00:18:51;;;;;;;;;;;13.90;93.60;;;;;;6154636;23;19905;-67
2022/08/28 00:21:17;;;;;;;;;;;14.00;93.60;;;;;;6155013;23;19905;-67
2022/08/28 00:23:44;;;;;;;;;;;14.00;93.10;;;;;;6154921;23;20291;-67
2022/08/28 00:27:51;;;;;;;;;;;14.00;92.90;;;;;;6154734;23;19904;-67
2022/08/28 00:28:57;;;;;;;;;;;14.10;92.60;;;;;;6154728;23;19951;-67
2022/08/28 00:31:24;;;;;;;;;;;14.20;92.60;;;;;;6155789;23;19915;-67
2022/08/28 00:33:50;;;;;;;;;;;14.20;92.30;;;;;;6154875;23;19931;-67
2022/08/28 00:36:18;;;;;;;;;;;14.30;91.60;;;;;;6154616;23;19909;-68
2022/08/28 00:38:44;;;;;;;;;;;14.30;91.20;;;;;;6155116;23;19964;-67
2022/08/28 00:41:11;;;;;;;;;;;14.40;91.60;;;;;;6154827;23;20328;-67
2022/08/28 00:43:40;;;;;;;;;;;14.50;91.60;;;;;;6129036;23;20239;-67
2022/08/28 00:46:08;;;;;;;;;;;14.60;91.60;;;;;;6154571;23;19904;-67
2022/08/28 00:48:35;;;;;;;;;;;14.70;91.60;;;;;;6154128;23;20240;-67
2022/08/28 00:53:47;;;;;;;;;;;14.80;91.00;;;;;;6155037;23;19928;-67
2022/08/28 00:56:14;;;;;;;;;;;14.90;91.30;;;;;;6154482;23;19916;-68
2022/08/28 00:58:41;;;;;;;;;;;15.00;91.30;;;;;;6128756;23;19937;-67
2022/08/28 01:01:08;;;;;;;;;;;15.00;91.30;;;;;;6128057;23;19912;-68
2022/08/28 01:03:35;;;;;;;;;;;15.20;90.60;;;;;;6154454;23;20247;-68
2022/08/28 01:06:02;;;;;;;;;;;15.20;90.10;;;;;;6154711;23;19932;-67
2022/08/28 01:08:29;;;;;;;;;;;15.20;89.90;;;;;;6154343;23;19940;-67
2022/08/28 01:10:55;;;;;;;;;;;15.20;90.60;;;;;;6154637;23;19952;-67
2022/08/28 01:13:22;;;;;;;;;;;15.30;90.70;;;;;;6128783;23;20408;-67
2022/08/28 01:15:49;;;;;;;;;;;15.20;89.70;;;;;;6129057;23;19909;-67
2022/08/28 01:18:16;;;;;;;;;;;15.30;90.30;;;;;;6128996;23;19983;-68
2022/08/28 01:20:46;;;;;;;;;;;15.30;89.70;;;;;;6154683;23;19904;-67
2022/08/28 01:23:19;;;;;;;;;;;15.40;88.90;;;;;;6128614;23;19936;-68
2022/08/28 01:25:45;;;;;;;;;;;15.50;88.30;;;;;;6154850;23;20260;-67
2022/08/28 01:28:12;;;;;;;;;;;15.60;88.50;;;;;;6154896;23;19983;-68
2022/08/28 01:30:43;;;;;;;;;;;15.70;88.30;;;;;;6154882;23;19989;-68
2022/08/28 01:33:10;;;;;;;;;;;15.70;87.40;;;;;;6154511;23;19904;-68
2022/08/28 01:35:37;;;;;;;;;;;15.80;87.70;;;;;;6154444;23;19951;-67
2022/08/28 01:38:04;;;;;;;;;;;15.80;86.20;;;;;;6128890;23;19912;-68
2022/08/28 01:40:35;;;;;;;;;;;15.80;86.50;;;;;;6154827;23;19928;-67
2022/08/28 01:43:08;;;;;;;;;;;16.00;85.80;;;;;;6154297;23;19912;-67
2022/08/28 01:45:36;;;;;;;;;;;16.00;84.80;;;;;;6154814;23;19967;-68
2022/08/28 01:48:04;;;;;;;;;;;16.10;84.90;;;;;;6154517;23;19913;-68
2022/08/28 01:50:30;;;;;;;;;;;16.10;84.90;;;;;;6154561;23;19905;-67
2022/08/28 01:52:57;;;;;;;;;;;16.10;84.70;;;;;;6153911;23;19978;-67
2022/08/28 01:55:24;;;;;;;;;;;16.10;83.80;;;;;;6153309;23;19927;-67
2022/08/28 01:57:52;;;;;;;;;;;16.20;81.70;;;;;;6154047;23;20360;-67
2022/08/28 02:00:19;;;;;;;;;;;16.20;83.30;;;;;;6154381;23;20248;-68
2022/08/28 02:02:47;;;;;;;;;;;16.30;83.40;;;;;;6154450;23;19905;-68
2022/08/28 02:05:13;;;;;;;;;;;16.30;82.40;;;;;;6154419;23;20347;-68
2022/08/28 02:07:40;;;;;;;;;;;16.30;83.00;;;;;;6154595;23;19924;-68
2022/08/28 02:10:07;;;;;;;;;;;16.40;82.50;;;;;;6154366;23;19904;-68
2022/08/28 02:12:34;;;;;;;;;;;16.50;82.30;;;;;;6154467;23;20376;-68
2022/08/28 02:15:01;;;;;;;;;;;16.50;81.40;;;;;;6154123;23;19912;-68
2022/08/28 02:17:27;;;;;;;;;;;16.50;79.70;;;;;;6156335;23;19904;-68
2022/08/28 02:19:54;;;;;;;;;;;16.50;79.80;;;;;;6156522;23;19958;-68
2022/08/28 02:22:21;;;;;;;;;;;16.60;79.40;;;;;;6155813;23;20256;-68
2022/08/28 02:24:47;;;;;;;;;;;16.70;78.50;;;;;;6156138;23;19920;-68
2022/08/28 02:27:14;;;;;;;;;;;16.70;78.10;;;;;;6156143;23;20272;-68
2022/08/28 02:29:41;;;;;;;;;;;16.70;78.10;;;;;;6155707;23;19905;-67
2022/08/28 02:32:07;;;;;;;;;;;16.70;79.00;;;;;;6155792;23;19904;-68
2022/08/28 02:34:34;;;;;;;;;;;16.60;78.40;;;;;;6156012;23;19951;-68
2022/08/28 02:37:01;;;;;;;;;;;16.70;78.10;;;;;;6156304;23;19905;-68
2022/08/28 02:39:28;;;;;;;;;;;16.70;77.60;;;;;;6156183;23;20266;-68
2022/08/28 02:41:54;;;;;;;;;;;16.80;77.60;;;;;;6130154;23;19967;-68
2022/08/28 02:44:21;;;;;;;;;;;16.80;78.00;;;;;;6155893;23;19955;-68
2022/08/28 02:46:47;;;;;;;;;;;16.80;78.20;;;;;;6155921;23;19911;-68
2022/08/28 02:49:14;;;;;;;;;;;16.80;77.40;;;;;;6156360;23;19920;-68
2022/08/28 02:51:41;;;;;;;;;;;16.80;77.20;;;;;;6155881;23;20355;-68
2022/08/28 02:54:07;;;;;;;;;;;16.80;76.20;;;;;;6156016;23;19987;-68
2022/08/28 02:56:34;;;;;;;;;;;16.80;77.30;;;;;;6155424;23;19991;-68
2022/08/28 02:59:00;;;;;;;;;;;16.80;77.90;;;;;;6155937;23;20380;-68
2022/08/28 03:01:27;;;;;;;;;;;16.90;77.50;;;;;;6155725;23;19932;-69
2022/08/28 03:03:54;;;;;;;;;;;16.90;76.40;;;;;;6155943;23;19924;-68
2022/08/28 03:06:21;;;;;;;;;;;16.80;76.60;;;;;;6155956;23;19911;-68
2022/08/28 03:08:48;;;;;;;;;;;16.90;76.70;;;;;;6155392;23;19905;-68
2022/08/28 03:11:15;;;;;;;;;;;16.80;77.20;;;;;;6155668;23;20264;-68
2022/08/28 03:13:41;;;;;;;;;;;16.80;77.20;;;;;;6155232;23;19905;-68
2022/08/28 03:16:08;;;;;;;;;;;16.90;77.30;;;;;;6155982;23;19909;-67
2022/08/28 03:18:34;;;;;;;;;;;16.90;76.70;;;;;;6155708;23;19956;-67
2022/08/28 03:21:01;;;;;;;;;;;16.90;76.20;;;;;;6155557;23;19936;-67
2022/08/28 03:23:29;;;;;;;;;;;16.80;77.30;;;;;;6155208;23;20383;-67
2022/08/28 03:25:57;;;;;;;;;;;16.90;78.20;;;;;;6155565;23;20043;-67
2022/08/28 03:28:24;;;;;;;;;;;17.00;77.60;;;;;;6155398;23;19966;-68
2022/08/28 03:30:51;;;;;;;;;;;17.00;77.80;;;;;;6155504;23;20336;-67
2022/08/28 03:33:17;;;;;;;;;;;16.90;78.20;;;;;;6155403;23;19936;-67
2022/08/28 03:35:44;;;;;;;;;;;16.90;78.20;;;;;;6155752;23;19904;-68
2022/08/28 03:38:11;;;;;;;;;;;16.90;78.10;;;;;;6155465;23;19905;-67
2022/08/28 03:40:41;;;;;;;;;;;16.90;77.00;;;;;;6155295;23;19904;-68
2022/08/28 03:43:09;;;;;;;;;;;16.90;78.40;;;;;;6154980;23;19934;-68
2022/08/28 03:45:36;;;;;;;;;;;16.90;77.60;;;;;;6155567;23;19916;-67
2022/08/28 03:48:03;;;;;;;;;;;16.90;78.70;;;;;;6155430;23;19952;-68
2022/08/28 03:50:30;;;;;;;;;;;16.90;79.40;;;;;;6142580;23;19905;-68
2022/08/28 03:52:58;;;;;;;;;;;16.90;77.00;;;;;;6155354;23;19908;-68
2022/08/28 03:55:25;;;;;;;;;;;16.90;77.10;;;;;;6154776;23;20225;-68
2022/08/28 03:57:51;;;;;;;;;;;16.90;76.70;;;;;;6155114;23;19913;-67
2022/08/28 04:00:19;;;;;;;;;;;17.00;77.60;;;;;;6154658;23;19905;-68
2022/08/28 04:02:45;;;;;;;;;;;16.90;77.80;;;;;;6154973;23;20301;-68
2022/08/28 04:05:12;;;;;;;;;;;16.90;78.30;;;;;;6154826;23;20324;-68
2022/08/28 04:07:39;;;;;;;;;;;16.90;78.00;;;;;;6155061;23;19905;-67
2022/08/28 04:10:06;;;;;;;;;;;16.90;78.10;;;;;;6155471;23;19909;-68
2022/08/28 04:12:32;;;;;;;;;;;16.90;78.50;;;;;;6154957;23;19991;-68
2022/08/28 04:14:59;;;;;;;;;;;16.90;78.80;;;;;;6154989;23;19904;-68
2022/08/28 04:17:26;;;;;;;;;;;16.80;79.50;;;;;;6155172;23;20054;-68
2022/08/28 04:19:53;;;;;;;;;;;16.90;79.00;;;;;;6155408;23;19905;-68
2022/08/28 04:22:19;;;;;;;;;;;16.90;79.20;;;;;;6154931;23;19912;-68
2022/08/28 04:24:46;;;;;;;;;;;16.90;78.80;;;;;;6154791;23;20235;-68
2022/08/28 04:27:13;;;;;;;;;;;16.90;79.50;;;;;;6155065;23;19905;-67
2022/08/28 04:29:40;;;;;;;;;;;16.90;79.30;;;;;;6154937;23;19927;-68
2022/08/28 04:32:07;;;;;;;;;;;16.90;79.30;;;;;;6155326;23;19905;-67
2022/08/28 04:34:33;;;;;;;;;;;17.00;78.80;;;;;;6154748;23;19913;-68
2022/08/28 04:37:00;;;;;;;;;;;17.00;79.00;;;;;;6154586;23;19943;-68
2022/08/28 04:39:26;;;;;;;;;;;17.00;79.20;;;;;;6154870;23;19992;-67
2022/08/28 04:41:54;;;;;;;;;;;17.00;78.40;;;;;;6155418;23;19909;-68
2022/08/28 04:44:20;;;;;;;;;;;17.00;78.00;;;;;;6154614;23;19913;-68
2022/08/28 04:46:47;;;;;;;;;;;17.00;78.70;;;;;;6154473;23;19912;-67
2022/08/28 04:49:14;;;;;;;;;;;17.00;79.00;;;;;;6154356;23;19905;-67
2022/08/28 04:51:41;;;;;;;;;;;17.00;79.00;;;;;;6154481;23;19959;-68
2022/08/28 04:54:09;;;;;;;;;;;17.00;78.70;;;;;;6154884;23;19980;-68
2022/08/28 04:56:36;;;;;;;;;;;17.00;78.80;;;;;;6154417;23;19916;-67
2022/08/28 04:59:03;;;;;;;;;;;17.00;78.80;;;;;;6154697;23;19904;-67
2022/08/28 05:01:30;;;;;;;;;;;17.10;78.70;;;;;;6154412;23;19979;-67
2022/08/28 05:03:57;;;;;;;;;;;17.00;79.10;;;;;;6154455;23;19919;-67
2022/08/28 05:06:25;;;;;;;;;;;17.00;79.30;;;;;;6155576;23;19943;-68
2022/08/28 05:08:58;;;;;;;;;;;17.00;79.70;;;;;;6154495;23;19936;-68
2022/08/28 05:11:25;;;;;;;;;;;17.00;79.70;;;;;;6154787;23;19913;-68
2022/08/28 05:13:51;;;;;;;;;;;17.00;79.90;;;;;;6154862;23;19905;-68
2022/08/28 05:16:18;;;;;;;;;;;17.00;80.00;;;;;;6154746;23;19951;-68
2022/08/28 05:18:45;;;;;;;;;;;16.90;80.20;;;;;;6154828;23;19979;-68
2022/08/28 05:21:21;;;;;;;;;;;16.90;80.30;;;;;;6154492;23;20395;-68
2022/08/28 05:23:52;;;;;;;;;;;16.90;80.30;;;;;;6154374;23;20325;-68
2022/08/28 05:26:19;;;;;;;;;;;16.90;81.00;;;;;;6154693;23;20214;-68
2022/08/28 05:28:46;;;;;;;;;;;16.80;81.10;;;;;;6155035;23;19904;-69
2022/08/28 05:31:14;;;;;;;;;;;16.80;81.20;;;;;;6154759;23;20300;-68
2022/08/28 05:33:42;;;;;;;;;;;16.80;81.60;;;;;;6154315;23;19909;-68
2022/08/28 05:36:08;;;;;;;;;;;16.70;82.40;;;;;;6128671;23;19905;-68
2022/08/28 05:38:35;;;;;;;;;;;16.70;82.90;;;;;;6154950;23;20300;-68
2022/08/28 05:41:02;;;;;;;;;;;16.70;82.80;;;;;;6154354;23;19904;-68
2022/08/28 05:43:30;;;;;;;;;;;16.70;82.80;;;;;;6154051;23;19912;-68
2022/08/28 05:46:09;;;;;;;;;;;16.70;82.80;;;;;;6154001;23;20299;-68
2022/08/28 05:48:37;;;;;;;;;;;16.70;83.30;;;;;;6154375;23;19975;-68
2022/08/28 05:51:04;;;;;;;;;;;16.70;83.50;;;;;;6155481;23;19905;-68
2022/08/28 05:53:31;;;;;;;;;;;16.70;83.40;;;;;;6156791;23;19908;-68
2022/08/28 05:55:58;;;;;;;;;;;16.70;83.50;;;;;;6156042;23;19924;-68
2022/08/28 05:58:32;;;;;;;;;;;16.70;83.40;;;;;;6156485;23;19968;-68
2022/08/28 06:01:07;;;;;;;;;;;16.80;83.10;;;;;;6156105;23;19909;-68
2022/08/28 06:03:34;;;;;;;;;;;16.80;83.10;;;;;;6156500;23;19952;-68
2022/08/28 06:06:01;;;;;;;;;;;16.80;83.20;;;;;;6156250;23;19904;-68
2022/08/28 06:08:28;;;;;;;;;;;16.80;82.80;;;;;;6156405;23;19912;-68
2022/08/28 06:10:55;;;;;;;;;;;16.90;83.00;;;;;;6156011;23;19945;-68
2022/08/28 06:13:22;;;;;;;;;;;16.90;82.30;;;;;;6156265;23;19905;-69
2022/08/28 06:15:49;;;;;;;;;;;16.90;81.90;;;;;;6156371;23;19905;-69
2022/08/28 06:18:15;;;;;;;;;;;16.90;81.90;;;;;;6156395;23;19938;-69
2022/08/28 06:20:43;;;;;;;;;;;16.90;82.30;;;;;;6155731;23;19911;-68
2022/08/28 06:23:10;;;;;;;;;;;16.90;81.90;;;;;;6155641;23;19908;-69
2022/08/28 06:25:38;;;;;;;;;;;16.90;82.10;;;;;;6156112;23;19908;-67
2022/08/28 06:28:08;;;;;;;;;;;16.90;81.70;;;;;;6155984;23;19919;-67
2022/08/28 06:30:35;;;;;;;;;;;16.90;81.60;;;;;;6156253;23;19975;-67
2022/08/28 06:33:02;;;;;;;;;;;16.90;81.80;;;;;;6155798;23;19905;-68
2022/08/28 06:35:30;;;;;;;;;;;16.80;81.70;;;;;;6155978;23;20390;-68
2022/08/28 06:38:00;;;;;;;;;;;16.80;81.70;;;;;;6155483;23;20332;-68
2022/08/28 06:40:26;;;;;;;;;;;16.70;81.50;;;;;;6156000;23;19909;-68
2022/08/28 06:42:53;;;;;;;;;;;16.70;81.80;;;;;;6156233;23;19905;-68
2022/08/28 06:45:19;;;;;;;;;;;16.80;81.60;;;;;;6155787;23;19979;-68
2022/08/28 06:47:46;;;;;;;;;;;16.70;81.70;;;;;;6155689;23;19935;-68
2022/08/28 06:50:13;;;;;;;;;;;16.70;81.70;;;;;;6155376;23;19905;-68
2022/08/28 06:52:39;;;;;;;;;;;16.70;82.20;;;;;;6156278;23;19909;-67
2022/08/28 06:55:06;;;;;;;;;;;16.70;82.40;;;;;;6155627;23;20014;-68
2022/08/28 06:57:33;;;;;;;;;;;16.60;82.60;;;;;;6156006;23;19967;-68
2022/08/28 07:00:00;;;;;;;;;;;16.60;82.80;;;;;;6156074;23;19904;-68
2022/08/28 07:02:26;;;;;;;;;;;16.50;82.80;;;;;;6155191;23;19908;-68
2022/08/28 07:04:53;;;;;;;;;;;16.50;83.00;;;;;;6155813;23;19975;-68
2022/08/28 07:07:20;;;;;;;;;;;16.60;83.00;;;;;;6155988;23;19905;-68
2022/08/28 07:09:47;;;;;;;;;;;16.50;83.10;;;;;;6156034;23;19909;-68
2022/08/28 07:12:14;;;;;;;;;;;16.50;83.60;;;;;;6155102;23;20300;-65
2022/08/28 07:14:40;;;;;;;;;;;16.50;83.70;;;;;;6155218;23;19951;-65
2022/08/28 07:17:07;;;;;;;;;;;16.50;84.00;;;;;;6156018;23;19987;-65
2022/08/28 07:19:33;;;;;;;;;;;16.40;84.00;;;;;;6129730;23;19983;-66
2022/08/28 07:22:00;;;;;;;;;;;16.40;84.30;;;;;;6155693;23;20316;-66
2022/08/28 07:24:28;;;;;;;;;;;16.40;84.30;;;;;;6155123;23;19912;-66
2022/08/28 07:26:54;;;;;;;;;;;16.40;84.50;;;;;;6155497;23;19904;-67
2022/08/28 07:29:21;;;;;;;;;;;16.40;84.80;;;;;;6155651;23;19905;-67
2022/08/28 07:31:50;;;;;;;;;;;16.40;84.90;;;;;;6153460;23;19905;-66
2022/08/28 07:34:17;;;;;;;;;;;16.40;84.90;;;;;;6154348;23;19905;-66
2022/08/28 07:36:44;;;;;;;;;;;16.30;85.20;;;;;;6153925;23;19991;-67
2022/08/28 07:39:11;;;;;;;;;;;16.30;85.60;;;;;;6154328;23;20240;-66
2022/08/28 07:41:39;;;;;;;;;;;16.40;85.80;;;;;;6154781;23;19904;-66
2022/08/28 07:46:54;;;;;;;;;;;16.30;86.10;;;;;;6152028;23;19918;-71
2022/08/28 07:49:21;;;;;;;;;;;16.30;86.20;;;;;;6150763;23;20015;-71
2022/08/28 07:51:47;;;;;;;;;;;16.30;86.30;;;;;;6151351;23;19909;-69
2022/08/28 07:54:14;;;;;;;;;;;16.30;86.40;;;;;;6150115;23;19908;-69
2022/08/28 07:56:41;;;;;;;;;;;16.30;86.50;;;;;;6150048;23;20264;-68
2022/08/28 07:59:08;;;;;;;;;;;16.30;86.50;;;;;;6150895;23;19915;-70
2022/08/28 08:01:41;;;;;;;;;;;16.20;86.80;;;;;;6124740;23;19909;-69
2022/08/28 08:04:08;;;;;;;;;;;16.20;86.90;;;;;;6125306;23;19917;-69
2022/08/28 08:06:35;;;;;;;;;;;16.20;87.10;;;;;;6151646;23;19943;-70
2022/08/28 08:09:05;;;;;;;;;;;16.20;87.20;;;;;;6151691;23;19908;-70
2022/08/28 08:11:32;;;;;;;;;;;16.20;87.40;;;;;;6150621;23;19915;-70
2022/08/28 08:14:04;;;;;;;;;;;16.20;87.40;;;;;;6125182;23;19912;-70
2022/08/28 08:16:32;;;;;;;;;;;16.20;87.50;;;;;;6151385;23;19913;-69
2022/08/28 08:18:59;;;;;;;;;;;16.20;87.60;;;;;;6149608;23;19912;-70
2022/08/28 08:21:25;;;;;;;;;;;16.10;87.80;;;;;;6150693;23;19916;-68
2022/08/28 08:23:52;;;;;;;;;;;16.10;87.80;;;;;;6150994;23;20312;-69
2022/08/28 08:26:20;;;;;;;;;;;16.10;87.80;;;;;;6150980;23;19909;-69
2022/08/28 08:28:47;;;;;;;;;;;16.10;88.10;;;;;;6125015;23;19905;-68
2022/08/28 08:31:14;;;;;;;;;;;16.10;88.20;;;;;;6150432;23;19987;-69
2022/08/28 08:33:42;;;;;;;;;;;16.10;88.20;;;;;;6124960;23;19968;-69
2022/08/28 08:36:09;;;;;;;;;;;16.10;88.10;;;;;;6151033;23;19912;-68
2022/08/28 08:38:36;;;;;;;;;;;16.10;88.20;;;;;;6125592;23;19908;-69
2022/08/28 08:41:10;;;;;;;;;;;16.10;88.20;;;;;;6151803;23;19915;-68
2022/08/28 08:43:44;;;;;;;;;;;16.10;88.40;;;;;;6122592;23;19942;-68
2022/08/28 08:46:10;;;;;;;;;;;16.10;88.30;;;;;;6124600;23;19967;-68
2022/08/28 08:48:37;;;;;;;;;;;16.10;88.20;;;;;;6151035;23;19909;-68
2022/08/28 08:51:06;;;;;;;;;;;16.10;88.20;;;;;;6125038;23;20386;-68
2022/08/28 08:53:34;;;;;;;;;;;16.20;88.20;;;;;;6150992;23;19940;-68
2022/08/28 08:56:04;;;;;;;;;;;16.10;88.20;;;;;;6150130;23;19991;-67
2022/08/28 08:58:34;;;;;;;;;;;16.10;88.20;;;;;;6125082;23;20451;-67
2022/08/28 09:01:09;;;;;;;;;;;16.00;88.40;;;;;;6149712;23;20354;-67
2022/08/28 09:03:43;;;;;;;;;;;16.10;88.40;;;;;;6149871;23;19913;-66
2022/08/28 09:06:15;;;;;;;;;;;16.00;88.70;;;;;;6151174;23;19948;-67
2022/08/28 09:08:48;;;;;;;;;;;16.00;88.60;;;;;;6124121;23;19913;-65
2022/08/28 09:11:21;;;;;;;;;;;16.00;88.70;;;;;;6120278;23;20024;-66
2022/08/28 09:14:20;;;;;;;;;;;16.00;88.90;;;;;;6146717;23;19909;-67
2022/08/28 09:16:46;;;;;;;;;;;16.00;88.80;;;;;;6083580;23;19913;-65
2022/08/28 09:19:15;;;;;;;;;;;16.00;88.90;;;;;;6147617;23;19944;-65
2022/08/28 09:21:42;;;;;;;;;;;16.00;88.90;;;;;;6121622;23;19936;-67
2022/08/28 09:24:15;;;;;;;;;;;16.00;89.30;;;;;;6148688;23;20325;-68
2022/08/28 09:26:41;;;;;;;;;;;16.00;89.10;;;;;;6148367;23;19912;-68
2022/08/28 09:29:17;;;;;;;;;;;16.00;89.60;;;;;;6123072;23;19909;-69
2022/08/28 09:31:44;;;;;;;;;;;16.00;89.70;;;;;;6147710;23;20351;-68
2022/08/28 09:34:27;;;;;;;;;;;16.00;89.70;;;;;;6122503;23;20248;-68
2022/08/28 09:36:55;;;;;;;;;;;16.00;90.00;;;;;;6123454;23;19908;-69
2022/08/28 09:39:27;;;;;;;;;;;16.00;90.10;;;;;;6148182;23;20485;-66
2022/08/28 09:44:50;;;;;;;;;;;16.00;90.30;;;;;;6122896;23;19928;-68
2022/08/28 09:47:34;;;;;;;;;;;16.00;90.50;;;;;;6148144;23;19908;-69
2022/08/28 09:50:21;;;;;;;;;;;16.00;90.70;;;;;;6147434;23;19920;-69
2022/08/28 09:52:47;;;;;;;;;;;16.00;90.70;;;;;;6148587;23;19913;-66
2022/08/28 09:55:37;;;;;;;;;;;16.00;90.80;;;;;;6148105;23;19916;-66
2022/08/28 09:58:04;;;;;;;;;;;16.00;90.90;;;;;;6093213;23;20300;-66
2022/08/28 10:00:32;;;;;;;;;;;16.00;91.00;;;;;;6147242;23;19940;-67
2022/08/28 10:03:00;;;;;;;;;;;16.00;91.10;;;;;;6146662;23;19915;-67
2022/08/28 10:05:53;;;;;;;;;;;16.00;91.10;;;;;;6148581;23;19956;-67
2022/08/28 10:08:22;;;;;;;;;;;16.00;91.30;;;;;;6103052;23;19909;-67
2022/08/28 10:10:50;;;;;;;;;;;16.00;91.30;;;;;;6145383;23;19908;-67
2022/08/28 10:13:18;;;;;;;;;;;16.00;91.50;;;;;;6120796;23;19991;-67
2022/08/28 10:15:53;;;;;;;;;;;16.00;91.20;;;;;;6121440;23;19913;-67
2022/08/28 10:18:31;;;;;;;;;;;16.00;91.20;;;;;;6147760;23;19912;-66
2022/08/28 10:21:16;;;;;;;;;;;16.00;91.40;;;;;;6120831;23;19947;-67
2022/08/28 10:23:46;;;;;;;;;;;16.00;91.50;;;;;;6147119;23;20422;-69
2022/08/28 10:26:15;;;;;;;;;;;16.00;91.50;;;;;;6148026;23;19932;-68
2022/08/28 10:28:55;;;;;;;;;;;16.00;91.50;;;;;;6148368;23;19995;-68
2022/08/28 10:31:22;;;;;;;;;;;15.90;91.50;;;;;;6122521;23;19909;-69
2022/08/28 10:34:01;;;;;;;;;;;15.90;91.50;;;;;;6148848;23;19912;-67
2022/08/28 10:36:31;;;;;;;;;;;15.90;91.60;;;;;;6122607;23;19978;-67
2022/08/28 10:39:18;;;;;;;;;;;15.90;91.70;;;;;;6123595;23;19909;-67
2022/08/28 10:41:48;;;;;;;;;;;15.90;91.60;;;;;;6087182;23;19955;-67
2022/08/28 10:44:23;;;;;;;;;;;16.00;91.70;;;;;;6146690;23;20003;-67
2022/08/28 10:46:50;;;;;;;;;;;16.00;91.60;;;;;;6149282;23;19963;-67
2022/08/28 11:00:34;;;;;;;;;;;15.90;91.60;;;;;;6147298;23;20252;-68
2022/08/28 11:03:02;;;;;;;;;;;15.90;91.50;;;;;;6122866;23;19920;-67
2022/08/28 11:05:30;;;;;;;;;;;15.90;91.60;;;;;;6149513;23;20313;-68
2022/08/28 11:07:59;;;;;;;;;;;15.90;91.50;;;;;;6123994;23;19911;-68
2022/08/28 11:10:29;;;;;;;;;;;15.90;91.50;;;;;;6123288;23;19912;-68
2022/08/28 11:12:55;;;;;;;;;;;15.90;91.50;;;;;;6120782;23;19961;-68
2022/08/28 11:15:28;;;;;;;;;;;15.90;91.40;;;;;;6149183;23;19987;-68
2022/08/28 11:17:55;;;;;;;;;;;15.90;91.40;;;;;;6149967;23;19988;-69
2022/08/28 11:20:23;;;;;;;;;;;15.80;91.40;;;;;;6123564;23;20268;-69
2022/08/28 11:22:54;;;;;;;;;;;15.80;91.40;;;;;;6124598;23;19955;-69
2022/08/28 11:25:23;;;;;;;;;;;15.80;91.40;;;;;;6124661;23;19916;-69
2022/08/28 11:28:08;;;;;;;;;;;15.80;91.50;;;;;;6149589;23;19908;-69
2022/08/28 11:30:35;;;;;;;;;;;15.80;91.50;;;;;;6149465;23;20311;-70
2022/08/28 11:33:03;;;;;;;;;;;15.70;91.50;;;;;;6122961;23;20299;-67
2022/08/28 11:35:29;;;;;;;;;;;15.70;91.50;;;;;;6123480;23;19944;-69
2022/08/28 11:37:56;;;;;;;;;;;15.70;91.60;;;;;;6149959;23;19915;-71
2022/08/28 11:40:32;;;;;;;;;;;15.80;91.50;;;;;;6149920;23;19939;-70
2022/08/28 11:43:14;;;;;;;;;;;15.80;91.50;;;;;;6147165;23;19962;-68
2022/08/28 11:45:49;;;;;;;;;;;15.70;91.50;;;;;;6148894;23;20248;-67
2022/08/28 11:48:22;;;;;;;;;;;15.70;91.50;;;;;;6149050;23;19909;-68
2022/08/28 11:50:52;;;;;;;;;;;15.70;91.50;;;;;;6148498;23;21289;-68
2022/08/28 11:53:31;;;;;;;;;;;15.70;91.50;;;;;;6149742;23;20336;-68
2022/08/28 11:56:06;;;;;;;;;;;15.70;91.40;;;;;;6149647;23;19944;-68
2022/08/28 11:58:59;;;;;;;;;;;15.70;91.50;;;;;;6123158;23;19912;-68
2022/08/28 12:13:52;;;;;;;;;;;15.70;91.40;;;;;;6118916;23;19932;-68
2022/08/28 12:16:19;;;;;;;;;;;15.70;91.50;;;;;;6118594;23;20197;-69
2022/08/28 12:18:48;;;;;;;;;;;15.70;91.50;;;;;;6093979;23;19909;-69
2022/08/28 12:21:21;;;;;;;;;;;15.70;91.50;;;;;;6118874;23;20332;-69
2022/08/28 12:23:58;;;;;;;;;;;15.60;91.50;;;;;;6093642;23;19917;-68
2022/08/28 12:26:25;;;;;;;;;;;15.60;91.60;;;;;;6118248;23;19919;-71
2022/08/28 12:28:59;;;;;;;;;;;15.60;91.60;;;;;;6119496;23;19909;-70
2022/08/28 12:34:35;;;;;;;;;;;15.60;91.60;;;;;;6117575;23;19915;-69
2022/08/28 12:37:02;;;;;;;;;;;15.60;91.70;;;;;;6118994;23;19909;-68
2022/08/28 12:39:30;;;;;;;;;;;15.60;91.70;;;;;;6119616;23;20922;-69
2022/08/28 12:41:57;;;;;;;;;;;15.60;91.70;;;;;;6092609;23;19915;-69
2022/08/28 12:44:28;;;;;;;;;;;15.60;91.70;;;;;;6091822;23;19925;-69
2022/08/28 12:46:55;;;;;;;;;;;15.60;91.80;;;;;;6094515;23;19913;-69
2022/08/28 12:49:27;;;;;;;;;;;15.50;91.70;;;;;;6094554;23;19909;-68
2022/08/28 12:52:32;;;;;;;;;;;15.50;91.60;;;;;;6094739;23;19983;-69
2022/08/28 12:54:58;;;;;;;;;;;15.50;91.60;;;;;;5973563;23;19918;-70
2022/08/28 12:57:25;;;;;;;;;;;15.50;91.70;;;;;;5973716;24;19915;-69
2022/08/28 12:59:53;;;;;;;;;;;15.50;91.80;;;;;;6017613;23;19913;-70
2022/08/28 13:02:25;;;;;;;;;;;15.40;91.70;;;;;;6069485;23;19940;-68
2022/08/28 13:05:00;;;;;;;;;;;15.40;91.80;;;;;;6094026;23;20323;-68
2022/08/28 13:07:33;;;;;;;;;;;15.40;91.70;;;;;;6093478;23;20259;-69
2022/08/28 13:10:19;;;;;;;;;;;15.40;91.70;;;;;;6119208;23;20244;-68
2022/08/28 14:11:25;;;;;;;;;;;15.30;90.40;;;;;;6147298;23;19966;-69
2022/08/28 14:13:51;;;;;;;;;;;15.30;90.40;;;;;;6155331;23;20340;-69
2022/08/28 14:16:18;;;;;;;;;;;15.20;90.50;;;;;;6155753;23;20742;-69
2022/08/28 14:18:45;;;;;;;;;;;15.20;90.60;;;;;;6156094;23;19936;-69
2022/08/28 14:21:11;;;;;;;;;;;15.30;90.60;;;;;;6154799;23;19905;-69
2022/08/28 14:23:38;;;;;;;;;;;15.20;90.60;;;;;;6156171;23;19920;-69
2022/08/28 14:26:05;;;;;;;;;;;15.30;90.40;;;;;;6156472;23;20303;-69
2022/08/28 14:28:31;;;;;;;;;;;15.20;90.40;;;;;;6155456;23;19943;-69
2022/08/28 14:30:58;;;;;;;;;;;15.30;90.50;;;;;;6155939;23;19950;-69
2022/08/28 14:33:24;;;;;;;;;;;15.20;90.40;;;;;;6155992;23;19913;-69
2022/08/28 14:35:51;;;;;;;;;;;15.30;90.50;;;;;;6156144;23;20371;-69
2022/08/28 14:38:18;;;;;;;;;;;15.20;90.50;;;;;;6130332;23;19905;-69
2022/08/28 14:40:44;;;;;;;;;;;15.20;90.60;;;;;;6156579;23;19976;-69
2022/08/28 14:43:11;;;;;;;;;;;15.20;90.60;;;;;;6156023;23;19905;-69
2022/08/28 14:45:45;;;;;;;;;;;15.20;90.50;;;;;;6130331;23;19962;-70
2022/08/28 14:48:13;;;;;;;;;;;15.20;90.50;;;;;;6129753;23;19963;-69
2022/08/28 14:50:40;;;;;;;;;;;15.20;90.50;;;;;;6155319;23;20335;-69
2022/08/28 14:53:07;;;;;;;;;;;15.10;90.60;;;;;;6155921;23;19932;-69
2022/08/28 14:55:38;;;;;;;;;;;15.10;90.70;;;;;;6155643;23;19937;-69
2022/08/28 14:58:04;;;;;;;;;;;15.10;90.80;;;;;;6156025;23;19927;-69
2022/08/28 15:00:31;;;;;;;;;;;15.10;90.80;;;;;;6155225;23;19951;-69
2022/08/28 15:02:57;;;;;;;;;;;15.00;90.90;;;;;;6155108;23;19951;-69
2022/08/28 15:05:24;;;;;;;;;;;15.00;90.90;;;;;;6155487;23;19916;-69
2022/08/28 15:07:51;;;;;;;;;;;15.00;90.90;;;;;;6154248;23;19905;-69
2022/08/28 15:10:17;;;;;;;;;;;15.00;91.00;;;;;;6154763;23;19905;-69
2022/08/28 15:12:44;;;;;;;;;;;15.00;91.10;;;;;;6155176;23;19944;-69
2022/08/28 15:15:12;;;;;;;;;;;15.00;91.00;;;;;;6155213;23;19904;-69
2022/08/28 15:17:38;;;;;;;;;;;15.00;91.10;;;;;;6154759;23;19915;-69
2022/08/28 15:20:05;;;;;;;;;;;14.90;91.30;;;;;;6154910;23;20228;-69
2022/08/28 15:22:32;;;;;;;;;;;14.90;91.30;;;;;;6129399;23;19905;-69
2022/08/28 15:24:58;;;;;;;;;;;14.80;91.10;;;;;;6154766;23;19924;-69
2022/08/28 15:27:25;;;;;;;;;;;14.80;91.30;;;;;;6154098;23;19924;-69
2022/08/28 15:29:52;;;;;;;;;;;14.80;91.20;;;;;;6155493;23;19905;-69
2022/08/28 15:32:19;;;;;;;;;;;14.80;91.10;;;;;;6154986;23;20397;-69
2022/08/28 15:34:45;;;;;;;;;;;14.70;91.10;;;;;;6155272;23;19905;-68
2022/08/28 15:37:12;;;;;;;;;;;14.80;91.30;;;;;;6155631;23;19909;-69
2022/08/28 15:42:23;;;;;;;;;;;14.80;91.40;;;;;;6155983;23;19911;-69
2022/08/28 15:44:49;;;;;;;;;;;14.70;91.20;;;;;;6155133;23;19916;-69
2022/08/28 15:47:16;;;;;;;;;;;14.70;91.30;;;;;;6155363;23;19905;-69
2022/08/28 15:49:43;;;;;;;;;;;14.70;91.20;;;;;;6154856;23;20015;-69
2022/08/28 15:52:10;;;;;;;;;;;14.70;91.20;;;;;;6155488;23;19905;-69
2022/08/28 15:54:36;;;;;;;;;;;14.70;91.10;;;;;;6156056;23;19927;-69
2022/08/28 15:57:03;;;;;;;;;;;14.70;91.20;;;;;;6155319;23;19905;-69
2022/08/28 15:59:30;;;;;;;;;;;14.70;91.20;;;;;;6154249;23;20321;-69
2022/08/28 16:01:57;;;;;;;;;;;14.70;91.30;;;;;;6154636;23;19987;-69